sensor_id;sensor_type;location;lat;lon;timestamp;temperature;humidity
66835;HTU21D;53743;51.100;5.874;2023-06-22T00:00:36;23.74;45.64
66835;HTU21D;53743;51.100;5.874;2023-06-22T00:01:39;23.69;45.74
66835;HTU21D;53743;51.100;5.874;2023-06-22T00:02:41;23.67;45.72
66835;HTU21D;53743;51.100;5.874;2023-06-22T00:03:42;23.64;45.81
66835;HTU21D;53743;51.100;5.874;2023-06-22T00:04:44;23.62;45.82
66835;HTU21D;53743;51.100;5.874;2023-06-22T00:05:46;23.62;45.83
66835;HTU21D;53743;51.100;5.874;2023-06-22T00:06:49;23.61;45.86
66835;HTU21D;53743;51.100;5.874;2023-06-22T00:07:50;23.60;45.93
66835;HTU21D;53743;51.100;5.874;2023-06-22T00:08:51;23.58;45.85
66835;HTU21D;53743;51.100;5.874;2023-06-22T00:09:52;23.58;45.99
66835;HTU21D;53743;51.100;5.874;2023-06-22T00:10:54;23.58;45.90
66835;HTU21D;53743;51.100;5.874;2023-06-22T00:11:55;23.55;46.09
66835;HTU21D;53743;51.100;5.874;2023-06-22T00:12:57;23.52;46.11
66835;HTU21D;53743;51.100;5.874;2023-06-22T00:13:58;23.50;46.18
66835;HTU21D;53743;51.100;5.874;2023-06-22T00:15:00;23.47;46.31
66835;HTU21D;53743;51.100;5.874;2023-06-22T00:16:03;23.46;46.49
66835;HTU21D;53743;51.100;5.874;2023-06-22T00:17:05;23.44;46.50
66835;HTU21D;53743;51.100;5.874;2023-06-22T00:18:07;23.45;46.51
66835;HTU21D;53743;51.100;5.874;2023-06-22T00:19:10;23.43;46.55
66835;HTU21D;53743;51.100;5.874;2023-06-22T00:20:12;23.41;46.67
66835;HTU21D;53743;51.100;5.874;2023-06-22T00:21:14;23.39;46.70
66835;HTU21D;53743;51.100;5.874;2023-06-22T00:22:15;23.42;46.76
66835;HTU21D;53743;51.100;5.874;2023-06-22T00:23:17;23.42;46.89
66835;HTU21D;53743;51.100;5.874;2023-06-22T00:24:18;23.41;46.90
66835;HTU21D;53743;51.100;5.874;2023-06-22T00:25:21;23.41;46.71
66835;HTU21D;53743;51.100;5.874;2023-06-22T00:26:22;23.40;46.73
66835;HTU21D;53743;51.100;5.874;2023-06-22T00:27:25;23.39;47.06
66835;HTU21D;53743;51.100;5.874;2023-06-22T00:28:26;23.37;46.93
66835;HTU21D;53743;51.100;5.874;2023-06-22T00:29:29;23.38;46.92
66835;HTU21D;53743;51.100;5.874;2023-06-22T00:30:31;23.40;46.87
66835;HTU21D;53743;51.100;5.874;2023-06-22T00:31:35;23.41;46.84
66835;HTU21D;53743;51.100;5.874;2023-06-22T00:32:36;23.43;46.82
66835;HTU21D;53743;51.100;5.874;2023-06-22T00:33:38;23.44;46.86
66835;HTU21D;53743;51.100;5.874;2023-06-22T00:34:40;23.46;46.82
66835;HTU21D;53743;51.100;5.874;2023-06-22T00:35:42;23.50;46.81
66835;HTU21D;53743;51.100;5.874;2023-06-22T00:36:43;23.52;46.79
66835;HTU21D;53743;51.100;5.874;2023-06-22T00:37:45;23.54;46.77
66835;HTU21D;53743;51.100;5.874;2023-06-22T00:38:46;23.51;47.37
66835;HTU21D;53743;51.100;5.874;2023-06-22T00:39:49;23.49;46.89
66835;HTU21D;53743;51.100;5.874;2023-06-22T00:40:50;23.54;46.83
66835;HTU21D;53743;51.100;5.874;2023-06-22T00:41:52;23.53;46.67
66835;HTU21D;53743;51.100;5.874;2023-06-22T00:42:54;23.49;46.78
66835;HTU21D;53743;51.100;5.874;2023-06-22T00:43:56;23.47;47.02
66835;HTU21D;53743;51.100;5.874;2023-06-22T00:44:58;23.43;47.12
66835;HTU21D;53743;51.100;5.874;2023-06-22T00:46:00;23.43;46.99
66835;HTU21D;53743;51.100;5.874;2023-06-22T00:47:03;23.43;47.04
66835;HTU21D;53743;51.100;5.874;2023-06-22T00:48:08;23.43;47.26
66835;HTU21D;53743;51.100;5.874;2023-06-22T00:49:09;23.44;47.45
66835;HTU21D;53743;51.100;5.874;2023-06-22T00:50:18;23.43;47.61
66835;HTU21D;53743;51.100;5.874;2023-06-22T00:51:21;23.42;47.77
66835;HTU21D;53743;51.100;5.874;2023-06-22T00:52:25;23.44;47.95
66835;HTU21D;53743;51.100;5.874;2023-06-22T00:53:30;23.43;48.12
66835;HTU21D;53743;51.100;5.874;2023-06-22T00:54:35;23.43;48.31
66835;HTU21D;53743;51.100;5.874;2023-06-22T00:55:38;23.44;48.34
66835;HTU21D;53743;51.100;5.874;2023-06-22T00:56:44;23.43;48.48
66835;HTU21D;53743;51.100;5.874;2023-06-22T00:57:46;23.42;48.40
66835;HTU21D;53743;51.100;5.874;2023-06-22T00:58:50;23.41;48.47
66835;HTU21D;53743;51.100;5.874;2023-06-22T00:59:54;23.42;48.56
66835;HTU21D;53743;51.100;5.874;2023-06-22T01:00:56;23.43;48.74
66835;HTU21D;53743;51.100;5.874;2023-06-22T01:02:03;23.43;49.56
66835;HTU21D;53743;51.100;5.874;2023-06-22T01:03:05;23.41;48.98
66835;HTU21D;53743;51.100;5.874;2023-06-22T01:04:09;23.42;49.15
66835;HTU21D;53743;51.100;5.874;2023-06-22T01:05:13;23.41;49.27
66835;HTU21D;53743;51.100;5.874;2023-06-22T01:06:21;23.41;49.37
66835;HTU21D;53743;51.100;5.874;2023-06-22T01:07:34;23.40;49.41
66835;HTU21D;53743;51.100;5.874;2023-06-22T01:08:46;23.39;49.56
66835;HTU21D;53743;51.100;5.874;2023-06-22T01:10:02;23.39;49.89
66835;HTU21D;53743;51.100;5.874;2023-06-22T01:11:32;23.38;50.12
66835;HTU21D;53743;51.100;5.874;2023-06-22T01:12:47;23.41;50.18
66835;HTU21D;53743;51.100;5.874;2023-06-22T01:14:00;23.38;50.24
66835;HTU21D;53743;51.100;5.874;2023-06-22T01:15:11;23.32;50.44
66835;HTU21D;53743;51.100;5.874;2023-06-22T01:16:20;23.30;50.73
66835;HTU21D;53743;51.100;5.874;2023-06-22T01:17:30;23.30;51.04
66835;HTU21D;53743;51.100;5.874;2023-06-22T01:18:36;23.27;51.48
66835;HTU21D;53743;51.100;5.874;2023-06-22T01:19:45;23.26;51.61
66835;HTU21D;53743;51.100;5.874;2023-06-22T01:20:50;23.25;51.83
66835;HTU21D;53743;51.100;5.874;2023-06-22T01:21:56;23.24;52.00
66835;HTU21D;53743;51.100;5.874;2023-06-22T01:23:09;23.24;52.27
66835;HTU21D;53743;51.100;5.874;2023-06-22T01:24:25;23.24;52.49
66835;HTU21D;53743;51.100;5.874;2023-06-22T01:25:36;23.23;52.75
66835;HTU21D;53743;51.100;5.874;2023-06-22T01:26:57;23.25;52.99
66835;HTU21D;53743;51.100;5.874;2023-06-22T01:28:19;23.23;53.26
66835;HTU21D;53743;51.100;5.874;2023-06-22T01:29:29;23.20;53.81
66835;HTU21D;53743;51.100;5.874;2023-06-22T01:30:33;23.18;53.90
66835;HTU21D;53743;51.100;5.874;2023-06-22T01:31:39;23.15;54.23
66835;HTU21D;53743;51.100;5.874;2023-06-22T01:32:44;23.16;54.34
66835;HTU21D;53743;51.100;5.874;2023-06-22T01:33:51;23.17;54.47
66835;HTU21D;53743;51.100;5.874;2023-06-22T01:34:58;23.17;54.68
66835;HTU21D;53743;51.100;5.874;2023-06-22T01:36:02;23.17;55.62
66835;HTU21D;53743;51.100;5.874;2023-06-22T01:37:06;23.14;55.29
66835;HTU21D;53743;51.100;5.874;2023-06-22T01:38:09;23.13;55.49
66835;HTU21D;53743;51.100;5.874;2023-06-22T01:39:13;23.11;57.42
66835;HTU21D;53743;51.100;5.874;2023-06-22T01:40:15;23.09;56.42
66835;HTU21D;53743;51.100;5.874;2023-06-22T01:41:19;23.10;55.78
66835;HTU21D;53743;51.100;5.874;2023-06-22T01:42:24;23.11;55.96
66835;HTU21D;53743;51.100;5.874;2023-06-22T01:43:28;23.08;57.38
66835;HTU21D;53743;51.100;5.874;2023-06-22T01:44:34;23.07;57.25
66835;HTU21D;53743;51.100;5.874;2023-06-22T01:45:36;23.06;56.64
66835;HTU21D;53743;51.100;5.874;2023-06-22T01:46:39;23.05;56.70
66835;HTU21D;53743;51.100;5.874;2023-06-22T01:47:42;23.01;56.41
66835;HTU21D;53743;51.100;5.874;2023-06-22T01:48:46;23.02;56.52
66835;HTU21D;53743;51.100;5.874;2023-06-22T01:49:49;23.00;57.01
66835;HTU21D;53743;51.100;5.874;2023-06-22T01:50:52;23.00;56.77
66835;HTU21D;53743;51.100;5.874;2023-06-22T01:51:55;23.02;56.96
66835;HTU21D;53743;51.100;5.874;2023-06-22T01:52:56;23.01;57.09
66835;HTU21D;53743;51.100;5.874;2023-06-22T01:54:01;23.02;57.30
66835;HTU21D;53743;51.100;5.874;2023-06-22T01:55:03;23.03;57.50
66835;HTU21D;53743;51.100;5.874;2023-06-22T01:56:06;23.03;57.78
66835;HTU21D;53743;51.100;5.874;2023-06-22T01:57:09;23.00;57.93
66835;HTU21D;53743;51.100;5.874;2023-06-22T01:58:13;22.98;58.27
66835;HTU21D;53743;51.100;5.874;2023-06-22T01:59:21;22.94;58.38
66835;HTU21D;53743;51.100;5.874;2023-06-22T02:00:33;22.94;58.50
66835;HTU21D;53743;51.100;5.874;2023-06-22T02:01:43;22.93;58.57
66835;HTU21D;53743;51.100;5.874;2023-06-22T02:02:56;22.95;58.67
66835;HTU21D;53743;51.100;5.874;2023-06-22T02:04:06;22.97;58.78
66835;HTU21D;53743;51.100;5.874;2023-06-22T02:05:17;22.99;58.97
66835;HTU21D;53743;51.100;5.874;2023-06-22T02:06:25;22.99;58.86
66835;HTU21D;53743;51.100;5.874;2023-06-22T02:07:41;22.98;59.37
66835;HTU21D;53743;51.100;5.874;2023-06-22T02:08:51;22.97;59.09
66835;HTU21D;53743;51.100;5.874;2023-06-22T02:09:58;22.98;60.41
66835;HTU21D;53743;51.100;5.874;2023-06-22T02:11:03;22.97;59.02
66835;HTU21D;53743;51.100;5.874;2023-06-22T02:12:11;22.98;59.16
66835;HTU21D;53743;51.100;5.874;2023-06-22T02:13:16;22.97;59.28
66835;HTU21D;53743;51.100;5.874;2023-06-22T02:14:18;22.98;59.44
66835;HTU21D;53743;51.100;5.874;2023-06-22T02:15:21;22.99;59.68
66835;HTU21D;53743;51.100;5.874;2023-06-22T02:16:31;23.01;59.72
66835;HTU21D;53743;51.100;5.874;2023-06-22T02:17:34;23.01;59.90
66835;HTU21D;53743;51.100;5.874;2023-06-22T02:18:35;23.01;60.11
66835;HTU21D;53743;51.100;5.874;2023-06-22T02:19:38;23.00;60.26
66835;HTU21D;53743;51.100;5.874;2023-06-22T02:20:41;23.01;60.48
66835;HTU21D;53743;51.100;5.874;2023-06-22T02:21:44;23.00;60.93
66835;HTU21D;53743;51.100;5.874;2023-06-22T02:22:45;23.00;60.71
66835;HTU21D;53743;51.100;5.874;2023-06-22T02:23:47;23.00;60.87
66835;HTU21D;53743;51.100;5.874;2023-06-22T02:24:48;23.00;60.92
66835;HTU21D;53743;51.100;5.874;2023-06-22T02:25:50;23.02;61.16
66835;HTU21D;53743;51.100;5.874;2023-06-22T02:26:51;23.05;61.34
66835;HTU21D;53743;51.100;5.874;2023-06-22T02:27:53;23.07;61.02
66835;HTU21D;53743;51.100;5.874;2023-06-22T02:28:54;23.05;61.13
66835;HTU21D;53743;51.100;5.874;2023-06-22T02:29:57;23.05;61.25
66835;HTU21D;53743;51.100;5.874;2023-06-22T02:30:58;23.03;61.38
66835;HTU21D;53743;51.100;5.874;2023-06-22T02:32:01;23.05;61.59
66835;HTU21D;53743;51.100;5.874;2023-06-22T02:33:02;23.03;61.63
66835;HTU21D;53743;51.100;5.874;2023-06-22T02:34:04;23.03;61.59
66835;HTU21D;53743;51.100;5.874;2023-06-22T02:35:06;23.05;61.68
66835;HTU21D;53743;51.100;5.874;2023-06-22T02:36:09;23.06;61.76
66835;HTU21D;53743;51.100;5.874;2023-06-22T02:37:14;23.06;61.80
66835;HTU21D;53743;51.100;5.874;2023-06-22T02:38:16;23.05;61.90
66835;HTU21D;53743;51.100;5.874;2023-06-22T02:39:20;23.05;61.83
66835;HTU21D;53743;51.100;5.874;2023-06-22T02:40:23;23.05;61.96
66835;HTU21D;53743;51.100;5.874;2023-06-22T02:41:25;23.05;62.16
66835;HTU21D;53743;51.100;5.874;2023-06-22T02:42:26;23.05;62.08
66835;HTU21D;53743;51.100;5.874;2023-06-22T02:43:28;23.05;62.97
66835;HTU21D;53743;51.100;5.874;2023-06-22T02:44:30;23.07;62.13
66835;HTU21D;53743;51.100;5.874;2023-06-22T02:45:31;23.08;62.06
66835;HTU21D;53743;51.100;5.874;2023-06-22T02:46:34;23.07;62.31
66835;HTU21D;53743;51.100;5.874;2023-06-22T02:47:37;23.06;62.33
66835;HTU21D;53743;51.100;5.874;2023-06-22T02:48:39;23.06;62.28
66835;HTU21D;53743;51.100;5.874;2023-06-22T02:49:41;23.06;62.34
66835;HTU21D;53743;51.100;5.874;2023-06-22T02:50:45;23.03;62.68
66835;HTU21D;53743;51.100;5.874;2023-06-22T02:51:47;22.99;62.59
66835;HTU21D;53743;51.100;5.874;2023-06-22T02:52:53;22.96;62.60
66835;HTU21D;53743;51.100;5.874;2023-06-22T02:53:56;22.96;63.29
66835;HTU21D;53743;51.100;5.874;2023-06-22T02:54:58;22.94;62.82
66835;HTU21D;53743;51.100;5.874;2023-06-22T02:56:02;22.90;64.71
66835;HTU21D;53743;51.100;5.874;2023-06-22T02:57:07;22.90;62.90
66835;HTU21D;53743;51.100;5.874;2023-06-22T02:58:13;22.91;63.08
66835;HTU21D;53743;51.100;5.874;2023-06-22T02:59:15;22.90;63.33
66835;HTU21D;53743;51.100;5.874;2023-06-22T03:00:19;22.87;63.47
66835;HTU21D;53743;51.100;5.874;2023-06-22T03:01:22;22.87;63.65
66835;HTU21D;53743;51.100;5.874;2023-06-22T03:02:25;22.87;63.77
66835;HTU21D;53743;51.100;5.874;2023-06-22T03:03:28;22.85;64.84
66835;HTU21D;53743;51.100;5.874;2023-06-22T03:04:30;22.82;64.43
66835;HTU21D;53743;51.100;5.874;2023-06-22T03:05:32;22.82;64.17
66835;HTU21D;53743;51.100;5.874;2023-06-22T03:06:36;22.81;64.45
66835;HTU21D;53743;51.100;5.874;2023-06-22T03:07:42;22.79;65.15
66835;HTU21D;53743;51.100;5.874;2023-06-22T03:08:44;22.77;64.54
66835;HTU21D;53743;51.100;5.874;2023-06-22T03:09:46;22.76;65.50
66835;HTU21D;53743;51.100;5.874;2023-06-22T03:10:48;22.71;65.28
66835;HTU21D;53743;51.100;5.874;2023-06-22T03:11:51;22.70;64.66
66835;HTU21D;53743;51.100;5.874;2023-06-22T03:12:54;22.69;64.87
66835;HTU21D;53743;51.100;5.874;2023-06-22T03:13:56;22.70;65.78
66835;HTU21D;53743;51.100;5.874;2023-06-22T03:14:57;22.68;65.75
66835;HTU21D;53743;51.100;5.874;2023-06-22T03:16:00;22.69;64.98
66835;HTU21D;53743;51.100;5.874;2023-06-22T03:17:01;22.69;65.07
66835;HTU21D;53743;51.100;5.874;2023-06-22T03:18:04;22.67;65.19
66835;HTU21D;53743;51.100;5.874;2023-06-22T03:19:07;22.65;65.23
66835;HTU21D;53743;51.100;5.874;2023-06-22T03:20:09;22.66;65.37
66835;HTU21D;53743;51.100;5.874;2023-06-22T03:21:12;22.65;65.54
66835;HTU21D;53743;51.100;5.874;2023-06-22T03:22:15;22.65;65.66
66835;HTU21D;53743;51.100;5.874;2023-06-22T03:23:16;22.64;65.82
66835;HTU21D;53743;51.100;5.874;2023-06-22T03:24:18;22.64;66.14
66835;HTU21D;53743;51.100;5.874;2023-06-22T03:25:21;22.65;65.94
66835;HTU21D;53743;51.100;5.874;2023-06-22T03:26:23;22.64;65.82
66835;HTU21D;53743;51.100;5.874;2023-06-22T03:27:27;22.64;66.01
66835;HTU21D;53743;51.100;5.874;2023-06-22T03:28:29;22.62;66.07
66835;HTU21D;53743;51.100;5.874;2023-06-22T03:29:30;22.62;66.17
66835;HTU21D;53743;51.100;5.874;2023-06-22T03:30:32;22.63;66.27
66835;HTU21D;53743;51.100;5.874;2023-06-22T03:31:35;22.64;66.43
66835;HTU21D;53743;51.100;5.874;2023-06-22T03:32:37;22.64;66.32
66835;HTU21D;53743;51.100;5.874;2023-06-22T03:33:40;22.65;66.46
66835;HTU21D;53743;51.100;5.874;2023-06-22T03:34:43;22.66;66.46
66835;HTU21D;53743;51.100;5.874;2023-06-22T03:35:47;22.65;66.76
66835;HTU21D;53743;51.100;5.874;2023-06-22T03:36:50;22.64;66.65
66835;HTU21D;53743;51.100;5.874;2023-06-22T03:37:52;22.64;66.76
66835;HTU21D;53743;51.100;5.874;2023-06-22T03:38:54;22.65;67.04
66835;HTU21D;53743;51.100;5.874;2023-06-22T03:39:57;22.63;66.86
66835;HTU21D;53743;51.100;5.874;2023-06-22T03:40:58;22.63;66.92
66835;HTU21D;53743;51.100;5.874;2023-06-22T03:42:00;22.64;67.41
66835;HTU21D;53743;51.100;5.874;2023-06-22T03:43:01;22.68;66.88
66835;HTU21D;53743;51.100;5.874;2023-06-22T03:44:04;22.69;66.81
66835;HTU21D;53743;51.100;5.874;2023-06-22T03:45:06;22.70;67.90
66835;HTU21D;53743;51.100;5.874;2023-06-22T03:46:09;22.69;67.46
66835;HTU21D;53743;51.100;5.874;2023-06-22T03:47:11;22.66;66.99
66835;HTU21D;53743;51.100;5.874;2023-06-22T03:48:14;22.68;66.96
66835;HTU21D;53743;51.100;5.874;2023-06-22T03:49:15;22.67;66.97
66835;HTU21D;53743;51.100;5.874;2023-06-22T03:50:18;22.68;67.01
66835;HTU21D;53743;51.100;5.874;2023-06-22T03:51:20;22.71;66.99
66835;HTU21D;53743;51.100;5.874;2023-06-22T03:52:23;22.71;67.04
66835;HTU21D;53743;51.100;5.874;2023-06-22T03:53:24;22.72;67.11
66835;HTU21D;53743;51.100;5.874;2023-06-22T03:54:26;22.76;67.11
66835;HTU21D;53743;51.100;5.874;2023-06-22T03:55:27;22.77;67.07
66835;HTU21D;53743;51.100;5.874;2023-06-22T03:56:29;22.80;66.97
66835;HTU21D;53743;51.100;5.874;2023-06-22T03:57:32;22.82;67.53
66835;HTU21D;53743;51.100;5.874;2023-06-22T03:58:33;22.83;67.02
66835;HTU21D;53743;51.100;5.874;2023-06-22T03:59:35;22.85;66.78
66835;HTU21D;53743;51.100;5.874;2023-06-22T04:00:37;22.85;66.95
66835;HTU21D;53743;51.100;5.874;2023-06-22T04:01:39;22.83;66.92
66835;HTU21D;53743;51.100;5.874;2023-06-22T04:02:41;22.84;67.67
66835;HTU21D;53743;51.100;5.874;2023-06-22T04:03:43;22.84;66.92
66835;HTU21D;53743;51.100;5.874;2023-06-22T04:04:44;22.84;66.71
66835;HTU21D;53743;51.100;5.874;2023-06-22T04:05:47;22.87;67.65
66835;HTU21D;53743;51.100;5.874;2023-06-22T04:06:48;22.87;66.91
66835;HTU21D;53743;51.100;5.874;2023-06-22T04:07:51;22.87;67.41
66835;HTU21D;53743;51.100;5.874;2023-06-22T04:08:51;22.81;69.06
66835;HTU21D;53743;51.100;5.874;2023-06-22T04:09:54;22.80;67.45
66835;HTU21D;53743;51.100;5.874;2023-06-22T04:10:55;22.72;68.61
66835;HTU21D;53743;51.100;5.874;2023-06-22T04:11:57;22.70;68.18
66835;HTU21D;53743;51.100;5.874;2023-06-22T04:12:58;22.70;67.24
66835;HTU21D;53743;51.100;5.874;2023-06-22T04:14:00;22.68;67.92
66835;HTU21D;53743;51.100;5.874;2023-06-22T04:15:01;22.68;67.30
66835;HTU21D;53743;51.100;5.874;2023-06-22T04:16:04;22.67;69.81
66835;HTU21D;53743;51.100;5.874;2023-06-22T04:17:05;22.67;67.47
66835;HTU21D;53743;51.100;5.874;2023-06-22T04:18:07;22.69;67.73
66835;HTU21D;53743;51.100;5.874;2023-06-22T04:19:08;22.69;68.04
66835;HTU21D;53743;51.100;5.874;2023-06-22T04:20:16;22.69;67.58
66835;HTU21D;53743;51.100;5.874;2023-06-22T04:21:19;22.71;67.51
66835;HTU21D;53743;51.100;5.874;2023-06-22T04:22:21;22.72;68.71
66835;HTU21D;53743;51.100;5.874;2023-06-22T04:23:22;22.73;68.59
66835;HTU21D;53743;51.100;5.874;2023-06-22T04:24:24;22.75;67.47
66835;HTU21D;53743;51.100;5.874;2023-06-22T04:25:25;22.75;67.64
66835;HTU21D;53743;51.100;5.874;2023-06-22T04:26:27;22.75;68.10
66835;HTU21D;53743;51.100;5.874;2023-06-22T04:27:28;22.73;68.13
66835;HTU21D;53743;51.100;5.874;2023-06-22T04:28:31;22.76;68.16
66835;HTU21D;53743;51.100;5.874;2023-06-22T04:29:35;22.77;68.06
66835;HTU21D;53743;51.100;5.874;2023-06-22T04:30:38;22.77;68.14
66835;HTU21D;53743;51.100;5.874;2023-06-22T04:31:46;22.78;68.39
66835;HTU21D;53743;51.100;5.874;2023-06-22T04:32:51;22.77;68.26
66835;HTU21D;53743;51.100;5.874;2023-06-22T04:33:59;22.76;68.57
66835;HTU21D;53743;51.100;5.874;2023-06-22T04:35:07;22.77;69.56
66835;HTU21D;53743;51.100;5.874;2023-06-22T04:36:10;22.76;68.70
66835;HTU21D;53743;51.100;5.874;2023-06-22T04:37:15;22.72;68.73
66835;HTU21D;53743;51.100;5.874;2023-06-22T04:38:17;22.71;68.95
66835;HTU21D;53743;51.100;5.874;2023-06-22T04:39:18;22.70;68.93
66835;HTU21D;53743;51.100;5.874;2023-06-22T04:40:21;22.70;69.30
66835;HTU21D;53743;51.100;5.874;2023-06-22T04:41:22;22.70;69.11
66835;HTU21D;53743;51.100;5.874;2023-06-22T04:42:26;22.70;69.14
66835;HTU21D;53743;51.100;5.874;2023-06-22T04:43:28;22.70;69.08
66835;HTU21D;53743;51.100;5.874;2023-06-22T04:44:31;22.72;69.09
66835;HTU21D;53743;51.100;5.874;2023-06-22T04:45:32;22.73;69.07
66835;HTU21D;53743;51.100;5.874;2023-06-22T04:46:38;22.77;69.04
66835;HTU21D;53743;51.100;5.874;2023-06-22T04:47:40;22.80;69.31
66835;HTU21D;53743;51.100;5.874;2023-06-22T04:48:42;22.82;68.63
66835;HTU21D;53743;51.100;5.874;2023-06-22T04:49:43;22.85;68.44
66835;HTU21D;53743;51.100;5.874;2023-06-22T04:50:46;22.88;68.28
66835;HTU21D;53743;51.100;5.874;2023-06-22T04:51:47;22.88;68.14
66835;HTU21D;53743;51.100;5.874;2023-06-22T04:52:51;22.90;68.17
66835;HTU21D;53743;51.100;5.874;2023-06-22T04:53:52;22.91;68.47
66835;HTU21D;53743;51.100;5.874;2023-06-22T04:55:01;22.92;68.22
66835;HTU21D;53743;51.100;5.874;2023-06-22T04:56:02;22.96;68.14
66835;HTU21D;53743;51.100;5.874;2023-06-22T04:57:07;22.94;68.10
66835;HTU21D;53743;51.100;5.874;2023-06-22T04:58:10;22.96;68.08
66835;HTU21D;53743;51.100;5.874;2023-06-22T04:59:14;23.00;68.06
66835;HTU21D;53743;51.100;5.874;2023-06-22T05:00:17;23.02;68.05
66835;HTU21D;53743;51.100;5.874;2023-06-22T05:01:20;23.08;67.97
66835;HTU21D;53743;51.100;5.874;2023-06-22T05:02:23;23.10;68.13
66835;HTU21D;53743;51.100;5.874;2023-06-22T05:03:33;23.11;67.54
66835;HTU21D;53743;51.100;5.874;2023-06-22T05:04:37;23.14;67.32
66835;HTU21D;53743;51.100;5.874;2023-06-22T05:05:40;23.13;67.51
66835;HTU21D;53743;51.100;5.874;2023-06-22T05:06:41;23.12;66.91
66835;HTU21D;53743;51.100;5.874;2023-06-22T05:07:45;23.13;66.81
66835;HTU21D;53743;51.100;5.874;2023-06-22T05:08:50;23.14;67.01
66835;HTU21D;53743;51.100;5.874;2023-06-22T05:09:53;23.14;66.96
66835;HTU21D;53743;51.100;5.874;2023-06-22T05:10:54;23.17;67.00
66835;HTU21D;53743;51.100;5.874;2023-06-22T05:11:56;23.18;67.01
66835;HTU21D;53743;51.100;5.874;2023-06-22T05:13:00;23.22;67.12
66835;HTU21D;53743;51.100;5.874;2023-06-22T05:14:02;23.22;66.98
66835;HTU21D;53743;51.100;5.874;2023-06-22T05:15:05;23.24;67.10
66835;HTU21D;53743;51.100;5.874;2023-06-22T05:16:07;23.25;66.62
66835;HTU21D;53743;51.100;5.874;2023-06-22T05:17:09;23.25;66.59
66835;HTU21D;53743;51.100;5.874;2023-06-22T05:18:14;23.27;67.16
66835;HTU21D;53743;51.100;5.874;2023-06-22T05:19:16;23.25;66.92
66835;HTU21D;53743;51.100;5.874;2023-06-22T05:20:18;23.27;67.06
66835;HTU21D;53743;51.100;5.874;2023-06-22T05:21:24;23.28;66.98
66835;HTU21D;53743;51.100;5.874;2023-06-22T05:22:27;23.30;66.69
66835;HTU21D;53743;51.100;5.874;2023-06-22T05:23:29;23.31;66.70
66835;HTU21D;53743;51.100;5.874;2023-06-22T05:24:31;23.36;66.76
66835;HTU21D;53743;51.100;5.874;2023-06-22T05:25:33;23.37;66.82
66835;HTU21D;53743;51.100;5.874;2023-06-22T05:26:35;23.40;66.88
66835;HTU21D;53743;51.100;5.874;2023-06-22T05:27:37;23.44;66.81
66835;HTU21D;53743;51.100;5.874;2023-06-22T05:28:40;23.49;66.61
66835;HTU21D;53743;51.100;5.874;2023-06-22T05:29:42;23.52;66.33
66835;HTU21D;53743;51.100;5.874;2023-06-22T05:30:44;23.54;66.26
66835;HTU21D;53743;51.100;5.874;2023-06-22T05:31:45;23.56;66.20
66835;HTU21D;53743;51.100;5.874;2023-06-22T05:32:47;23.58;66.17
66835;HTU21D;53743;51.100;5.874;2023-06-22T05:33:51;23.62;66.38
66835;HTU21D;53743;51.100;5.874;2023-06-22T05:34:53;23.64;66.05
66835;HTU21D;53743;51.100;5.874;2023-06-22T05:35:55;23.62;66.05
66835;HTU21D;53743;51.100;5.874;2023-06-22T05:36:57;23.62;66.05
66835;HTU21D;53743;51.100;5.874;2023-06-22T05:37:59;23.61;66.04
66835;HTU21D;53743;51.100;5.874;2023-06-22T05:39:11;23.60;65.88
66835;HTU21D;53743;51.100;5.874;2023-06-22T05:40:15;23.61;65.75
66835;HTU21D;53743;51.100;5.874;2023-06-22T05:41:18;23.61;65.80
66835;HTU21D;53743;51.100;5.874;2023-06-22T05:42:21;23.62;65.88
66835;HTU21D;53743;51.100;5.874;2023-06-22T05:43:23;23.64;65.88
66835;HTU21D;53743;51.100;5.874;2023-06-22T05:44:24;23.64;65.81
66835;HTU21D;53743;51.100;5.874;2023-06-22T05:45:26;23.68;65.65
66835;HTU21D;53743;51.100;5.874;2023-06-22T05:46:27;23.67;65.46
66835;HTU21D;53743;51.100;5.874;2023-06-22T05:47:29;23.67;65.19
66835;HTU21D;53743;51.100;5.874;2023-06-22T05:48:30;23.65;64.88
66835;HTU21D;53743;51.100;5.874;2023-06-22T05:49:33;23.62;64.85
66835;HTU21D;53743;51.100;5.874;2023-06-22T05:50:34;23.55;65.92
66835;HTU21D;53743;51.100;5.874;2023-06-22T05:51:36;23.52;65.05
66835;HTU21D;53743;51.100;5.874;2023-06-22T05:52:37;23.53;64.91
66835;HTU21D;53743;51.100;5.874;2023-06-22T05:53:39;23.53;64.99
66835;HTU21D;53743;51.100;5.874;2023-06-22T05:54:40;23.52;64.92
66835;HTU21D;53743;51.100;5.874;2023-06-22T05:55:45;23.49;64.95
66835;HTU21D;53743;51.100;5.874;2023-06-22T05:56:46;23.49;64.96
66835;HTU21D;53743;51.100;5.874;2023-06-22T05:57:48;23.49;64.79
66835;HTU21D;53743;51.100;5.874;2023-06-22T05:58:49;23.49;64.85
66835;HTU21D;53743;51.100;5.874;2023-06-22T05:59:52;23.51;64.99
66835;HTU21D;53743;51.100;5.874;2023-06-22T06:00:54;23.52;65.06
66835;HTU21D;53743;51.100;5.874;2023-06-22T06:01:56;23.52;65.00
66835;HTU21D;53743;51.100;5.874;2023-06-22T06:02:58;23.52;65.02
66835;HTU21D;53743;51.100;5.874;2023-06-22T06:04:04;23.52;64.74
66835;HTU21D;53743;51.100;5.874;2023-06-22T06:05:05;23.54;64.79
66835;HTU21D;53743;51.100;5.874;2023-06-22T06:06:10;23.52;64.85
66835;HTU21D;53743;51.100;5.874;2023-06-22T06:07:11;23.54;64.76
66835;HTU21D;53743;51.100;5.874;2023-06-22T06:08:13;23.52;65.13
66835;HTU21D;53743;51.100;5.874;2023-06-22T06:09:15;23.51;64.72
66835;HTU21D;53743;51.100;5.874;2023-06-22T06:10:17;23.53;64.70
66835;HTU21D;53743;51.100;5.874;2023-06-22T06:11:19;23.55;64.66
66835;HTU21D;53743;51.100;5.874;2023-06-22T06:12:21;23.57;64.69
66835;HTU21D;53743;51.100;5.874;2023-06-22T06:13:23;23.59;64.80
66835;HTU21D;53743;51.100;5.874;2023-06-22T06:14:25;23.60;64.92
66835;HTU21D;53743;51.100;5.874;2023-06-22T06:15:26;23.64;65.04
66835;HTU21D;53743;51.100;5.874;2023-06-22T06:16:28;23.61;64.92
66835;HTU21D;53743;51.100;5.874;2023-06-22T06:17:30;23.61;64.93
66835;HTU21D;53743;51.100;5.874;2023-06-22T06:18:31;23.65;65.00
66835;HTU21D;53743;51.100;5.874;2023-06-22T06:19:33;23.65;65.06
66835;HTU21D;53743;51.100;5.874;2023-06-22T06:20:35;23.64;65.18
66835;HTU21D;53743;51.100;5.874;2023-06-22T06:21:37;23.61;65.24
66835;HTU21D;53743;51.100;5.874;2023-06-22T06:22:38;23.60;65.43
66835;HTU21D;53743;51.100;5.874;2023-06-22T06:23:40;23.58;65.48
66835;HTU21D;53743;51.100;5.874;2023-06-22T06:24:41;23.57;65.42
66835;HTU21D;53743;51.100;5.874;2023-06-22T06:25:43;23.58;65.37
66835;HTU21D;53743;51.100;5.874;2023-06-22T06:26:47;23.59;65.22
66835;HTU21D;53743;51.100;5.874;2023-06-22T06:27:50;23.61;65.01
66835;HTU21D;53743;51.100;5.874;2023-06-22T06:28:52;23.66;64.87
66835;HTU21D;53743;51.100;5.874;2023-06-22T06:29:54;23.67;64.76
66835;HTU21D;53743;51.100;5.874;2023-06-22T06:30:56;23.69;64.67
66835;HTU21D;53743;51.100;5.874;2023-06-22T06:31:57;23.70;64.60
66835;HTU21D;53743;51.100;5.874;2023-06-22T06:32:59;23.70;64.52
66835;HTU21D;53743;51.100;5.874;2023-06-22T06:34:00;23.72;64.22